Airport ID:KSMD
Update Time (UTC):25/08/2019 12:01
Wind Speed (Knots):0
Wind Direction (Magnetic):70
Temperature (°C):14.4
Dew Point (°C):12.7
Humidity (%):88.3
Altimeter (inHg):30.2
Density Altitude (Feet):
Visibility (Miles):10
Clouds (Hundreds of feet):CLR
Present Weather:
METAR:METAR KSMD 251200Z AUTO 00000KT 9SM CLR 14/13 A3020 RMK A01

The data displayed is for advisory purposes only and is not to be used for flight planning or operations.

This page is not automatically refreshed. Reload the page to see current data.